createdAt,value
2024-03-08T00:00:14.883Z,1.86
2024-03-08T00:02:43.948Z,1.83
2024-03-08T00:05:11.390Z,1.84
2024-03-08T00:07:39.656Z,1.84
2024-03-08T00:10:13.350Z,1.82
2024-03-08T00:12:46.589Z,1.81
2024-03-08T00:15:17.160Z,1.80
2024-03-08T00:17:46.135Z,1.77
2024-03-08T00:20:15.171Z,1.78
2024-03-08T00:22:42.976Z,1.75
2024-03-08T00:25:15.782Z,1.72
2024-03-08T00:27:42.754Z,1.71
2024-03-08T00:30:10.321Z,1.69
2024-03-08T00:32:38.173Z,1.66
2024-03-08T00:35:05.610Z,1.65
2024-03-08T00:37:36.203Z,1.65
2024-03-08T00:40:12.490Z,1.63
2024-03-08T00:43:34.005Z,1.60
2024-03-08T00:46:02.453Z,1.55
2024-03-08T00:48:29.566Z,1.54
2024-03-08T00:50:59.843Z,1.50
2024-03-08T00:53:30.078Z,1.48
2024-03-08T00:55:57.335Z,1.46
2024-03-08T00:58:39.796Z,1.41
2024-03-08T01:01:29.855Z,1.40
2024-03-08T01:04:27.234Z,1.35
2024-03-08T01:06:54.374Z,1.33
2024-03-08T01:09:23.620Z,1.31
2024-03-08T01:11:54.042Z,1.32
2024-03-08T01:14:23.613Z,1.31
2024-03-08T01:16:51.225Z,1.28
2024-03-08T01:19:18.930Z,1.25
2024-03-08T01:21:45.848Z,1.24
2024-03-08T01:24:25.165Z,1.20
2024-03-08T01:26:52.421Z,1.16
2024-03-08T01:29:22.607Z,1.12
2024-03-08T01:32:01.516Z,1.08
2024-03-08T01:34:31.616Z,1.06
2024-03-08T01:37:00.930Z,1.07
2024-03-08T01:39:30.497Z,1.04
2024-03-08T01:41:59.558Z,1.01
2024-03-08T01:44:29.761Z,0.97
2024-03-08T01:46:57.512Z,0.95
2024-03-08T01:49:28.478Z,0.94
2024-03-08T01:51:57.867Z,0.92
2024-03-08T01:54:26.140Z,0.88
2024-03-08T01:56:54.881Z,0.85
2024-03-08T01:59:28.417Z,0.83
2024-03-08T02:02:04.593Z,0.80
2024-03-08T02:04:32.032Z,0.77
2024-03-08T02:07:10.967Z,0.73
2024-03-08T02:09:38.025Z,0.71
2024-03-08T02:12:05.041Z,0.71
2024-03-08T02:14:32.448Z,0.69
2024-03-08T02:17:06.067Z,0.66
2024-03-08T02:19:34.176Z,0.65
2024-03-08T02:22:02.061Z,0.63
2024-03-08T02:24:35.221Z,0.59
2024-03-08T02:27:14.380Z,0.56
2024-03-08T02:29:44.050Z,0.53
2024-03-08T02:32:11.037Z,0.51
2024-03-08T02:34:50.859Z,0.48
2024-03-08T02:37:20.902Z,0.45
2024-03-08T02:39:51.121Z,0.43
2024-03-08T02:42:19.029Z,0.41
2024-03-08T02:45:03.694Z,0.39
2024-03-08T02:47:32.777Z,0.36
2024-03-08T02:50:09.284Z,0.32
2024-03-08T02:52:49.096Z,0.31
2024-03-08T02:55:18.437Z,0.30
2024-03-08T02:57:45.635Z,0.27
2024-03-08T03:03:30.482Z,0.20
2024-03-08T03:05:57.363Z,0.24
2024-03-08T03:08:40.127Z,0.22
2024-03-08T03:11:18.331Z,0.19
2024-03-08T03:14:05.847Z,0.19
2024-03-08T03:16:32.940Z,0.18
2024-03-08T03:19:03.051Z,0.16
2024-03-08T03:24:35.375Z,0.14
2024-03-08T03:27:02.468Z,0.11
2024-03-08T03:29:56.950Z,0.09
2024-03-08T03:32:30.261Z,0.09
2024-03-08T03:35:06.883Z,0.09
2024-03-08T03:40:53.853Z,0.10
2024-03-08T03:43:20.889Z,0.11
2024-03-08T03:45:52.122Z,0.11
2024-03-08T03:48:21.185Z,0.10
2024-03-08T03:51:23.993Z,0.09
2024-03-08T03:53:54.317Z,0.09
2024-03-08T03:56:37.336Z,0.09
2024-03-08T03:59:04.771Z,0.06
2024-03-08T04:01:39.847Z,0.05
2024-03-08T04:04:07.779Z,0.05
2024-03-08T04:06:34.882Z,0.06
2024-03-08T04:09:02.133Z,0.07
2024-03-08T04:11:49.834Z,0.05
2024-03-08T04:14:16.880Z,0.07
2024-03-08T04:16:43.655Z,0.05
2024-03-08T04:19:11.429Z,0.02
2024-03-08T04:21:38.487Z,0.01
2024-03-08T04:24:06.842Z,0.01
2024-03-08T04:26:35.198Z,0.03
2024-03-08T04:29:05.967Z,0.01
2024-03-08T04:31:32.951Z,-0.02
2024-03-08T04:33:59.815Z,-0.02
2024-03-08T04:36:26.593Z,-0.04
2024-03-08T04:38:53.518Z,-0.06
2024-03-08T04:41:21.471Z,-0.08
2024-03-08T04:43:48.376Z,-0.10
2024-03-08T04:46:15.258Z,-0.10
2024-03-08T04:48:43.809Z,-0.10
2024-03-08T04:51:13.812Z,-0.12
2024-03-08T04:53:43.783Z,-0.15
2024-03-08T04:56:17.384Z,-0.14
2024-03-08T04:58:50.646Z,-0.16
2024-03-08T05:01:17.845Z,-0.16
2024-03-08T05:03:49.713Z,-0.15
2024-03-08T05:06:17.351Z,-0.16
2024-03-08T05:08:44.320Z,-0.17
2024-03-08T05:11:11.208Z,-0.18
2024-03-08T05:13:38.821Z,-0.24
2024-03-08T05:16:06.297Z,-0.26
2024-03-08T05:18:33.706Z,-0.27
2024-03-08T05:21:00.841Z,-0.26
2024-03-08T05:23:28.035Z,-0.29
2024-03-08T05:25:54.760Z,-0.31
2024-03-08T05:28:34.054Z,-0.33
2024-03-08T05:34:11.464Z,-0.34
2024-03-08T05:36:40.773Z,-0.34
2024-03-08T05:39:08.490Z,-0.34
2024-03-08T05:41:35.551Z,-0.35
2024-03-08T05:44:02.671Z,-0.35
2024-03-08T05:46:29.534Z,-0.37
2024-03-08T05:48:56.481Z,-0.37
2024-03-08T05:51:26.376Z,-0.39
2024-03-08T05:53:54.698Z,-0.41
2024-03-08T05:56:21.406Z,-0.40
2024-03-08T05:58:49.100Z,-0.43
2024-03-08T06:01:16.789Z,-0.42
2024-03-08T06:03:46.539Z,-0.40
2024-03-08T06:06:14.455Z,-0.43
2024-03-08T06:08:41.678Z,-0.42
2024-03-08T06:11:08.468Z,-0.40
2024-03-08T06:13:42.099Z,-0.40
2024-03-08T06:16:12.759Z,-0.38
2024-03-08T06:18:40.834Z,-0.41
2024-03-08T06:21:08.213Z,-0.42
2024-03-08T06:23:34.899Z,-0.39
2024-03-08T06:26:02.437Z,-0.34
2024-03-08T06:28:29.100Z,-0.30
2024-03-08T06:30:55.770Z,-0.30
2024-03-08T06:33:22.450Z,-0.28
2024-03-08T06:35:49.442Z,-0.25
2024-03-08T06:38:18.170Z,-0.21
2024-03-08T06:40:45.071Z,-0.19
2024-03-08T06:43:15.494Z,-0.15
2024-03-08T06:45:42.262Z,-0.11
2024-03-08T06:48:11.090Z,-0.06
2024-03-08T06:50:37.870Z,-0.06
2024-03-08T06:53:04.746Z,-0.01
2024-03-08T06:55:31.601Z,0.03
2024-03-08T06:57:59.011Z,0.08
2024-03-08T07:00:28.261Z,0.12
2024-03-08T07:02:55.082Z,0.17
2024-03-08T07:05:21.633Z,0.22
2024-03-08T07:07:50.401Z,0.31
2024-03-08T07:10:18.005Z,0.34
2024-03-08T07:12:44.797Z,0.39
2024-03-08T07:15:15.256Z,0.44
2024-03-08T07:17:45.520Z,0.51
2024-03-08T07:20:14.562Z,0.56
2024-03-08T07:22:41.303Z,0.62
2024-03-08T07:25:10.969Z,0.66
2024-03-08T07:27:37.480Z,0.73
2024-03-08T07:32:35.787Z,0.86
2024-03-08T07:35:03.191Z,0.91
2024-03-08T07:37:29.760Z,0.98
2024-03-08T07:39:56.272Z,1.03
2024-03-08T07:42:24.059Z,1.07
2024-03-08T07:44:51.460Z,1.10
2024-03-08T07:47:21.208Z,1.18
2024-03-08T07:49:49.025Z,1.25
2024-03-08T07:52:16.741Z,1.31
2024-03-08T07:54:43.312Z,1.38
2024-03-08T07:57:10.167Z,1.42
2024-03-08T07:59:36.644Z,1.45
2024-03-08T08:02:03.198Z,1.53
2024-03-08T08:04:29.760Z,1.62
2024-03-08T08:06:56.333Z,1.67
2024-03-08T08:09:35.812Z,1.76
2024-03-08T08:12:05.375Z,1.82
2024-03-08T08:14:34.717Z,1.89
2024-03-08T08:17:04.863Z,1.96
2024-03-08T08:19:33.011Z,2.02
2024-03-08T08:21:59.562Z,2.12
2024-03-08T08:24:27.351Z,2.20
2024-03-08T08:26:53.852Z,2.28
2024-03-08T08:29:21.600Z,2.36
2024-03-08T08:31:48.339Z,2.46
2024-03-08T08:34:15.127Z,2.48
2024-03-08T08:36:41.745Z,2.54
2024-03-08T08:39:14.781Z,2.65
2024-03-08T08:41:42.698Z,2.73
2024-03-08T08:44:16.405Z,2.75
2024-03-08T08:46:43.601Z,2.83
2024-03-08T08:49:15.740Z,2.85
2024-03-08T08:51:42.373Z,2.94
2024-03-08T08:54:10.970Z,2.98
2024-03-08T08:56:38.669Z,3.01
2024-03-08T08:59:05.875Z,3.10
2024-03-08T09:01:32.712Z,3.19
2024-03-08T09:03:59.377Z,3.26
2024-03-08T09:06:26.998Z,3.41
2024-03-08T09:08:54.028Z,3.46
2024-03-08T09:11:21.489Z,3.59
2024-03-08T09:13:48.238Z,3.66
2024-03-08T09:16:14.870Z,3.74
2024-03-08T09:18:42.849Z,3.78
2024-03-08T09:21:11.011Z,3.88
2024-03-08T09:23:37.950Z,3.91
2024-03-08T09:26:08.155Z,3.95
2024-03-08T09:28:37.211Z,3.99
2024-03-08T09:31:04.001Z,4.13
2024-03-08T09:33:30.930Z,4.30
2024-03-08T09:36:02.909Z,4.33
2024-03-08T09:38:30.705Z,4.43
2024-03-08T09:40:58.271Z,4.46
2024-03-08T09:43:25.527Z,4.51
2024-03-08T09:45:52.407Z,4.58
2024-03-08T09:48:20.207Z,4.69
2024-03-08T09:50:47.555Z,4.71
2024-03-08T09:53:14.397Z,4.76
2024-03-08T09:55:43.585Z,4.84
2024-03-08T09:58:31.169Z,4.93
2024-03-08T10:01:02.986Z,5.00
2024-03-08T10:03:30.555Z,5.08
2024-03-08T10:06:01.481Z,5.14
2024-03-08T10:08:31.182Z,5.18
2024-03-08T10:11:01.379Z,5.31
2024-03-08T10:13:29.092Z,5.35
2024-03-08T10:15:56.262Z,5.47
2024-03-08T10:18:23.956Z,5.61
2024-03-08T10:21:08.437Z,5.70
2024-03-08T10:23:35.887Z,5.75
2024-03-08T10:26:16.179Z,5.85
2024-03-08T10:28:49.066Z,5.97
2024-03-08T10:31:19.180Z,6.09
2024-03-08T10:33:46.847Z,6.16
2024-03-08T10:36:15.830Z,6.24
2024-03-08T10:38:50.072Z,6.26
2024-03-08T10:41:18.216Z,6.28
2024-03-08T10:44:09.276Z,6.41
2024-03-08T10:46:57.473Z,6.52
2024-03-08T10:49:31.121Z,6.52
2024-03-08T10:52:00.184Z,6.50
2024-03-08T10:54:27.651Z,6.54
2024-03-08T10:56:56.000Z,6.64
2024-03-08T10:59:23.692Z,6.75
2024-03-08T11:01:50.755Z,6.85
2024-03-08T11:04:20.790Z,6.90
2024-03-08T11:06:48.272Z,6.95
2024-03-08T11:09:34.058Z,7.01
2024-03-08T11:12:20.000Z,7.04
2024-03-08T11:14:50.188Z,7.14
2024-03-08T11:17:21.473Z,7.24
2024-03-08T11:19:53.343Z,7.35
2024-03-08T11:22:28.406Z,7.42
2024-03-08T11:25:00.203Z,7.44
2024-03-08T11:28:07.664Z,7.58
2024-03-08T11:30:34.232Z,7.66
2024-03-08T11:33:04.480Z,7.73
2024-03-08T11:35:31.067Z,7.85
2024-03-08T11:38:03.137Z,7.92
2024-03-08T11:40:30.261Z,7.98
2024-03-08T11:42:57.184Z,8.07
2024-03-08T11:45:23.806Z,8.27
2024-03-08T11:47:51.295Z,8.35
2024-03-08T11:50:22.118Z,8.47
2024-03-08T11:52:49.643Z,8.56
2024-03-08T11:55:16.295Z,8.61
2024-03-08T11:57:43.981Z,8.60
2024-03-08T12:00:27.687Z,8.69
2024-03-08T12:03:05.647Z,8.72
2024-03-08T12:05:34.708Z,8.87
2024-03-08T12:08:03.212Z,8.91
2024-03-08T12:10:30.348Z,8.92
2024-03-08T12:13:00.693Z,8.94
2024-03-08T12:15:28.909Z,9.02
2024-03-08T12:17:57.179Z,9.10
2024-03-08T12:20:25.209Z,9.12
2024-03-08T12:22:54.372Z,9.23
2024-03-08T12:25:21.643Z,9.24
2024-03-08T12:27:48.493Z,9.16
2024-03-08T12:30:19.768Z,9.21
2024-03-08T12:32:54.169Z,9.30
2024-03-08T12:35:23.396Z,9.36
2024-03-08T12:37:52.558Z,9.37
2024-03-08T12:40:20.128Z,9.42
2024-03-08T12:42:48.407Z,9.50
2024-03-08T12:45:15.636Z,9.53
2024-03-08T12:47:43.088Z,9.61
2024-03-08T12:50:11.796Z,9.65
2024-03-08T12:52:38.339Z,9.69
2024-03-08T12:55:07.840Z,9.74
2024-03-08T12:57:36.171Z,9.61
2024-03-08T13:00:04.729Z,9.56
2024-03-08T13:02:35.174Z,9.70
2024-03-08T13:05:02.412Z,9.83
2024-03-08T13:07:29.126Z,9.87
2024-03-08T13:09:56.496Z,9.94
2024-03-08T13:12:24.052Z,9.96
2024-03-08T13:14:51.421Z,9.96
2024-03-08T13:17:19.409Z,9.94
2024-03-08T13:19:46.240Z,10.03
2024-03-08T13:22:17.557Z,10.11
2024-03-08T13:24:46.320Z,10.09
2024-03-08T13:27:23.226Z,10.12
2024-03-08T13:29:50.262Z,9.94
2024-03-08T13:32:17.862Z,9.86
2024-03-08T13:34:46.316Z,10.01
2024-03-08T13:37:12.951Z,10.07
2024-03-08T13:39:42.272Z,10.10
2024-03-08T13:42:10.989Z,10.05
2024-03-08T13:44:38.034Z,10.08
2024-03-08T13:47:06.015Z,10.16
2024-03-08T13:49:33.115Z,10.00
2024-03-08T13:52:02.719Z,9.91
2024-03-08T13:54:31.806Z,10.01
2024-03-08T13:57:01.682Z,10.08
2024-03-08T13:59:33.961Z,10.02
2024-03-08T14:02:03.000Z,10.15
2024-03-08T14:04:30.161Z,10.23
2024-03-08T14:07:02.399Z,10.34
2024-03-08T14:09:30.111Z,10.31
2024-03-08T14:11:56.831Z,10.25
2024-03-08T14:14:26.814Z,10.20
2024-03-08T14:16:59.028Z,10.23
2024-03-08T14:19:25.663Z,10.35
2024-03-08T14:21:54.395Z,10.22
2024-03-08T14:24:21.222Z,10.05
2024-03-08T14:26:49.975Z,9.97
2024-03-08T14:29:16.693Z,9.96
2024-03-08T14:31:44.348Z,10.01
2024-03-08T14:34:11.164Z,9.99
2024-03-08T14:36:39.128Z,9.97
2024-03-08T14:39:05.717Z,9.98
2024-03-08T14:41:32.411Z,9.91
2024-03-08T14:43:58.990Z,9.87
2024-03-08T14:46:25.737Z,9.87
2024-03-08T14:48:55.127Z,9.89
2024-03-08T14:51:27.614Z,9.82
2024-03-08T14:53:55.772Z,9.75
2024-03-08T14:56:23.981Z,9.83
2024-03-08T14:58:50.751Z,9.88
2024-03-08T15:01:17.472Z,9.93
2024-03-08T15:03:44.090Z,10.00
2024-03-08T15:06:11.178Z,9.99
2024-03-08T15:08:38.710Z,9.92
2024-03-08T15:11:06.985Z,9.91
2024-03-08T15:13:43.116Z,9.90
2024-03-08T15:16:09.957Z,9.83
2024-03-08T15:18:37.197Z,9.77
2024-03-08T15:21:09.973Z,9.74
2024-03-08T15:23:37.291Z,9.63
2024-03-08T15:26:08.582Z,9.51
2024-03-08T15:28:38.407Z,9.45
2024-03-08T15:31:07.125Z,9.42
2024-03-08T15:33:45.906Z,9.41
2024-03-08T15:36:15.239Z,9.35
2024-03-08T15:38:44.521Z,9.33
2024-03-08T15:41:11.691Z,9.25
2024-03-08T15:43:38.768Z,9.26
2024-03-08T15:46:05.526Z,9.23
2024-03-08T15:48:33.953Z,9.19
2024-03-08T15:51:03.360Z,9.14
2024-03-08T15:53:31.406Z,9.09
2024-03-08T15:56:01.151Z,9.11
2024-03-08T15:58:27.800Z,9.15
2024-03-08T16:00:54.466Z,9.10
2024-03-08T16:03:21.447Z,9.05
2024-03-08T16:05:49.581Z,9.02
2024-03-08T16:08:21.327Z,9.00
2024-03-08T16:10:57.578Z,8.95
2024-03-08T16:13:26.254Z,8.92
2024-03-08T16:15:55.902Z,8.86
2024-03-08T16:18:24.451Z,8.82
2024-03-08T16:20:52.006Z,8.82
2024-03-08T16:23:19.036Z,8.71
2024-03-08T16:25:46.087Z,8.66
2024-03-08T16:28:14.249Z,8.62
2024-03-08T16:30:50.131Z,8.54
2024-03-08T16:33:17.688Z,8.48
2024-03-08T16:35:46.145Z,8.44
2024-03-08T16:38:16.938Z,8.35
2024-03-08T16:40:44.944Z,8.31
2024-03-08T16:43:15.930Z,8.24
2024-03-08T16:45:54.185Z,8.21
2024-03-08T16:48:24.173Z,8.14
2024-03-08T16:50:51.135Z,8.06
2024-03-08T16:53:19.400Z,8.01
2024-03-08T16:55:47.792Z,7.97
2024-03-08T16:58:16.041Z,7.90
2024-03-08T17:00:43.648Z,7.82
2024-03-08T17:03:13.564Z,7.74
2024-03-08T17:05:45.783Z,7.69
2024-03-08T17:08:12.973Z,7.60
2024-03-08T17:10:42.231Z,7.49
2024-03-08T17:13:09.421Z,7.44
2024-03-08T17:15:37.170Z,7.38
2024-03-08T17:18:07.385Z,7.34
2024-03-08T17:20:37.835Z,7.34
2024-03-08T17:23:09.416Z,7.34
2024-03-08T17:25:41.633Z,7.31
2024-03-08T17:28:09.873Z,7.20
2024-03-08T17:30:39.454Z,7.12
2024-03-08T17:33:15.995Z,7.07
2024-03-08T17:35:43.677Z,7.09
2024-03-08T17:38:11.259Z,7.03
2024-03-08T17:40:39.806Z,6.96
2024-03-08T17:43:12.488Z,6.94
2024-03-08T17:45:41.923Z,6.90
2024-03-08T17:48:13.993Z,6.85
2024-03-08T17:50:41.489Z,6.80
2024-03-08T17:53:09.146Z,6.73
2024-03-08T17:55:41.357Z,6.68
2024-03-08T17:58:09.034Z,6.63
2024-03-08T18:00:38.971Z,6.62
2024-03-08T18:03:06.762Z,6.58
2024-03-08T18:05:33.767Z,6.53
2024-03-08T18:08:02.601Z,6.51
2024-03-08T18:10:31.351Z,6.48
2024-03-08T18:13:17.046Z,6.42
2024-03-08T18:15:46.928Z,6.41
2024-03-08T18:18:13.795Z,6.44
2024-03-08T18:20:50.160Z,6.42
2024-03-08T18:23:18.583Z,6.39
2024-03-08T18:25:46.012Z,6.33
2024-03-08T18:28:13.916Z,6.27
2024-03-08T18:30:42.704Z,6.20
2024-03-08T18:33:13.092Z,6.14
2024-03-08T18:35:39.945Z,6.08
2024-03-08T18:38:08.928Z,6.06
2024-03-08T18:40:36.095Z,6.04
2024-03-08T18:43:02.903Z,5.99
2024-03-08T18:45:29.573Z,5.98
2024-03-08T18:47:59.549Z,6.01
2024-03-08T18:50:29.978Z,6.04
2024-03-08T18:52:59.313Z,6.01
2024-03-08T18:55:29.782Z,5.97
2024-03-08T18:58:02.410Z,5.98
2024-03-08T19:00:37.788Z,5.93
2024-03-08T19:03:08.828Z,5.88
2024-03-08T19:05:35.635Z,5.87
2024-03-08T19:08:07.926Z,5.84
2024-03-08T19:10:35.989Z,5.78
2024-03-08T19:13:03.532Z,5.73
2024-03-08T19:15:33.772Z,5.69
2024-03-08T19:18:01.988Z,5.64
2024-03-08T19:20:34.672Z,5.60
2024-03-08T19:23:01.496Z,5.53
2024-03-08T19:25:35.543Z,5.56
2024-03-08T19:28:07.353Z,5.53
2024-03-08T19:30:37.549Z,5.51
2024-03-08T19:33:08.939Z,5.52
2024-03-08T19:35:36.877Z,5.53
2024-03-08T19:38:04.495Z,5.51
2024-03-08T19:40:36.187Z,5.44
2024-03-08T19:43:07.015Z,5.41
2024-03-08T19:45:34.202Z,5.37
2024-03-08T19:48:04.377Z,5.35
2024-03-08T19:50:33.673Z,5.35
2024-03-08T19:53:05.296Z,5.30
2024-03-08T19:55:36.122Z,5.23
2024-03-08T19:58:04.474Z,5.17
2024-03-08T20:00:32.919Z,5.13
2024-03-08T20:03:01.244Z,5.07
2024-03-08T20:05:32.546Z,5.05
2024-03-08T20:08:05.345Z,5.05
2024-03-08T20:10:33.364Z,5.05
2024-03-08T20:13:00.078Z,5.03
2024-03-08T20:15:27.016Z,4.97
2024-03-08T20:17:55.250Z,4.97
2024-03-08T20:20:23.146Z,4.97
2024-03-08T20:22:52.143Z,5.00
2024-03-08T20:25:23.549Z,4.96
2024-03-08T20:27:52.884Z,4.94
2024-03-08T20:30:25.362Z,4.91
2024-03-08T20:32:58.995Z,4.90
2024-03-08T20:35:27.390Z,4.91
2024-03-08T20:38:00.069Z,4.87
2024-03-08T20:40:38.478Z,4.84
2024-03-08T20:43:14.463Z,4.81
2024-03-08T20:45:41.055Z,4.77
2024-03-08T20:48:08.019Z,4.77
2024-03-08T20:50:38.979Z,4.78
2024-03-08T20:53:11.286Z,4.77
2024-03-08T20:55:45.581Z,4.71
2024-03-08T20:58:17.540Z,4.68
2024-03-08T21:00:49.581Z,4.69
2024-03-08T21:03:19.782Z,4.63
2024-03-08T21:05:51.779Z,4.61
2024-03-08T21:08:28.928Z,4.55
2024-03-08T21:10:56.397Z,4.52
2024-03-08T21:13:27.951Z,4.48
2024-03-08T21:15:55.123Z,4.43
2024-03-08T21:18:22.668Z,4.39
2024-03-08T21:20:50.154Z,4.33
2024-03-08T21:23:16.810Z,4.27
2024-03-08T21:25:44.166Z,4.22
2024-03-08T21:28:12.341Z,4.22
2024-03-08T21:30:41.921Z,4.20
2024-03-08T21:33:12.377Z,4.18
2024-03-08T21:35:40.061Z,4.15
2024-03-08T21:38:08.036Z,4.12
2024-03-08T21:40:37.413Z,4.08
2024-03-08T21:43:04.833Z,4.06
2024-03-08T21:45:32.552Z,4.02
2024-03-08T21:48:04.363Z,3.99
2024-03-08T21:50:32.258Z,3.97
2024-03-08T21:53:01.339Z,3.97
2024-03-08T21:55:28.903Z,3.96
2024-03-08T21:57:55.722Z,3.99
2024-03-08T22:00:25.037Z,3.98
2024-03-08T22:02:55.134Z,3.97
2024-03-08T22:05:24.446Z,3.95
2024-03-08T22:07:52.010Z,3.93
2024-03-08T22:10:27.892Z,3.90
2024-03-08T22:12:56.719Z,3.87
2024-03-08T22:15:24.776Z,3.85
2024-03-08T22:17:57.483Z,3.82
2024-03-08T22:20:33.890Z,3.80
2024-03-08T22:23:03.031Z,3.80
2024-03-08T22:25:31.481Z,3.80
2024-03-08T22:27:58.564Z,3.82
2024-03-08T22:30:25.354Z,3.83
2024-03-08T22:32:55.912Z,3.82
2024-03-08T22:35:24.927Z,3.81
2024-03-08T22:37:52.434Z,3.82
2024-03-08T22:40:24.603Z,3.83
2024-03-08T22:42:52.671Z,3.82
2024-03-08T22:45:19.511Z,3.80
2024-03-08T22:47:47.567Z,3.80
2024-03-08T22:50:16.281Z,3.80
2024-03-08T22:52:49.056Z,3.82
2024-03-08T22:55:22.669Z,3.80
2024-03-08T22:57:50.506Z,3.78
2024-03-08T23:00:38.065Z,3.76
2024-03-08T23:03:04.768Z,3.71
2024-03-08T23:05:31.269Z,3.67
2024-03-08T23:08:01.846Z,3.65
2024-03-08T23:10:29.285Z,3.61
2024-03-08T23:12:57.530Z,3.61
2024-03-08T23:15:25.914Z,3.63
2024-03-08T23:17:53.397Z,3.61
2024-03-08T23:20:21.706Z,3.55
2024-03-08T23:22:53.574Z,3.56
2024-03-08T23:25:20.988Z,3.57
2024-03-08T23:27:52.361Z,3.57
2024-03-08T23:30:21.487Z,3.55
2024-03-08T23:32:48.192Z,3.52
2024-03-08T23:35:15.196Z,3.50
2024-03-08T23:37:49.265Z,3.50
2024-03-08T23:40:24.204Z,3.50
2024-03-08T23:42:57.056Z,3.47
2024-03-08T23:45:23.944Z,3.45
2024-03-08T23:47:53.979Z,3.47
2024-03-08T23:50:23.832Z,3.50
2024-03-08T23:52:53.656Z,3.47
2024-03-08T23:55:30.612Z,3.44
2024-03-08T23:57:59.706Z,3.43
